createdAt,value
2019-03-23T00:01:38.371Z,10.47
2019-03-23T00:04:06.372Z,11.80
2019-03-23T00:06:34.309Z,12.43
2019-03-23T00:09:04.038Z,11.43
2019-03-23T00:11:32.130Z,10.10
2019-03-23T00:14:00.065Z,10.60
2019-03-23T00:16:28.084Z,10.23
2019-03-23T00:18:56.074Z,10.30
2019-03-23T00:21:24.043Z,10.23
2019-03-23T00:23:52.050Z,9.43
2019-03-23T00:26:20.200Z,9.90
2019-03-23T00:28:48.252Z,10.23
2019-03-23T00:31:16.315Z,9.83
2019-03-23T00:33:44.390Z,9.57
2019-03-23T00:36:12.402Z,9.50
2019-03-23T00:38:40.451Z,9.97
2019-03-23T00:41:08.519Z,10.00
2019-03-23T00:43:36.514Z,10.50
2019-03-23T00:46:04.658Z,9.97
2019-03-23T00:48:32.658Z,10.63
2019-03-23T00:51:00.659Z,11.07
2019-03-23T00:53:28.572Z,12.90
2019-03-23T00:55:56.729Z,12.80
2019-03-23T00:58:24.801Z,16.93
2019-03-23T01:00:53.144Z,17.87
2019-03-23T01:03:21.209Z,15.57
2019-03-23T01:05:49.253Z,18.83
2019-03-23T01:08:17.358Z,18.37
2019-03-23T01:10:45.391Z,19.07
2019-03-23T01:13:13.412Z,20.17
2019-03-23T01:15:41.478Z,18.47
2019-03-23T01:18:09.506Z,18.67
2019-03-23T01:20:37.463Z,19.50
2019-03-23T01:23:05.489Z,18.27
2019-03-23T01:25:33.535Z,16.63
2019-03-23T01:28:01.568Z,17.77
2019-03-23T01:30:29.646Z,15.77
2019-03-23T01:32:57.795Z,18.90
2019-03-23T01:35:25.917Z,19.20
2019-03-23T01:37:53.965Z,15.67
2019-03-23T01:40:21.953Z,16.87
2019-03-23T01:42:49.946Z,15.97
2019-03-23T01:45:18.028Z,14.53
2019-03-23T01:47:46.032Z,13.77
2019-03-23T01:50:14.087Z,11.67
2019-03-23T01:52:42.212Z,11.80
2019-03-23T01:55:10.435Z,10.20
2019-03-23T01:57:38.409Z,10.43
2019-03-23T02:00:07.594Z,11.00
2019-03-23T02:02:35.862Z,10.83
2019-03-23T02:05:04.574Z,9.43
2019-03-23T02:07:32.566Z,9.33
2019-03-23T02:10:00.582Z,10.30
2019-03-23T02:12:28.678Z,10.30
2019-03-23T02:14:56.627Z,10.30
2019-03-23T02:17:24.965Z,9.83
2019-03-23T02:19:53.057Z,9.50
2019-03-23T02:22:21.124Z,11.23
2019-03-23T02:24:49.228Z,9.80
2019-03-23T02:27:17.362Z,10.83
2019-03-23T02:29:45.447Z,10.90
2019-03-23T02:32:13.458Z,11.80
2019-03-23T02:34:41.572Z,12.10
2019-03-23T02:37:09.515Z,11.73
2019-03-23T02:39:37.583Z,11.20
2019-03-23T02:42:05.658Z,10.73
2019-03-23T02:44:33.675Z,13.20
2019-03-23T02:47:01.737Z,12.60
2019-03-23T02:49:29.759Z,10.67
2019-03-23T02:51:58.139Z,11.80
2019-03-23T02:54:26.197Z,15.13
2019-03-23T02:56:54.290Z,14.77
2019-03-23T02:59:22.336Z,16.30
2019-03-23T03:01:50.252Z,13.37
2019-03-23T03:04:18.310Z,17.63
2019-03-23T03:06:46.362Z,17.17
2019-03-23T03:09:14.378Z,15.10
2019-03-23T03:11:42.309Z,17.27
2019-03-23T03:14:10.316Z,17.07
2019-03-23T03:16:38.355Z,15.93
2019-03-23T03:19:06.399Z,16.20
2019-03-23T03:21:34.344Z,18.03
2019-03-23T03:24:02.483Z,20.07
2019-03-23T03:26:30.514Z,20.50
2019-03-23T03:28:58.653Z,18.97
2019-03-23T03:31:26.778Z,18.80
2019-03-23T03:33:54.807Z,22.00
2019-03-23T03:36:22.825Z,21.27
2019-03-23T03:38:50.803Z,25.37
2019-03-23T03:41:18.863Z,23.67
2019-03-23T03:43:46.886Z,28.10
2019-03-23T03:46:14.873Z,26.83
2019-03-23T03:48:42.869Z,24.37
2019-03-23T03:51:10.957Z,20.30
2019-03-23T03:53:38.964Z,19.47
2019-03-23T03:56:06.964Z,17.23
2019-03-23T03:58:35.024Z,17.13
2019-03-23T04:01:03.221Z,17.20
2019-03-23T04:03:31.222Z,10.57
2019-03-23T04:05:59.215Z,12.00
2019-03-23T04:08:27.242Z,12.93
2019-03-23T04:10:55.220Z,10.73
2019-03-23T04:13:23.232Z,13.40
2019-03-23T04:15:51.255Z,11.40
2019-03-23T04:18:19.171Z,15.87
2019-03-23T04:20:47.186Z,17.50
2019-03-23T04:23:15.195Z,15.33
2019-03-23T04:25:43.183Z,17.73
2019-03-23T04:28:11.217Z,15.97
2019-03-23T04:30:40.786Z,17.00
2019-03-23T04:33:08.984Z,19.97
2019-03-23T04:35:37.137Z,21.47
2019-03-23T04:38:05.172Z,25.00
2019-03-23T04:40:33.129Z,23.80
2019-03-23T04:43:01.058Z,23.70
2019-03-23T04:45:29.198Z,20.83
2019-03-23T04:47:57.214Z,21.63
2019-03-23T04:50:25.203Z,21.60
2019-03-23T04:52:53.182Z,22.00
2019-03-23T04:55:21.195Z,22.83
2019-03-23T04:57:49.150Z,24.00
2019-03-23T05:00:19.083Z,21.53
2019-03-23T05:02:47.072Z,22.63
2019-03-23T05:05:15.092Z,22.60
2019-03-23T05:07:43.151Z,17.67
2019-03-23T05:10:11.516Z,19.00
2019-03-23T05:12:39.616Z,19.80
2019-03-23T05:15:08.303Z,19.93
2019-03-23T05:17:36.703Z,21.30
2019-03-23T05:20:05.688Z,19.70
2019-03-23T05:22:33.680Z,18.03
2019-03-23T05:25:01.755Z,20.37
2019-03-23T05:27:30.225Z,20.90
2019-03-23T05:29:58.229Z,19.67
2019-03-23T05:32:26.357Z,21.30
2019-03-23T05:34:54.882Z,19.60
2019-03-23T05:37:23.049Z,21.37
2019-03-23T05:39:51.059Z,18.37
2019-03-23T05:42:19.126Z,20.17
2019-03-23T05:44:47.467Z,20.83
2019-03-23T05:47:15.454Z,20.37
2019-03-23T05:49:43.482Z,19.60
2019-03-23T05:52:11.625Z,18.03
2019-03-23T05:54:39.629Z,16.50
2019-03-23T05:57:07.919Z,14.47
2019-03-23T05:59:35.889Z,12.97
2019-03-23T06:02:04.036Z,15.83
2019-03-23T06:04:32.055Z,12.37
2019-03-23T06:07:00.061Z,11.23
2019-03-23T06:09:28.474Z,12.00
2019-03-23T06:11:56.692Z,12.03
2019-03-23T06:14:24.790Z,11.57
2019-03-23T06:16:52.919Z,12.57
2019-03-23T06:19:21.013Z,11.97
2019-03-23T06:21:49.062Z,12.23
2019-03-23T06:24:17.276Z,13.23
2019-03-23T06:26:45.256Z,14.03
2019-03-23T06:29:13.256Z,14.83
2019-03-23T06:31:41.270Z,14.33
2019-03-23T06:34:11.646Z,16.33
2019-03-23T06:36:40.902Z,14.90
2019-03-23T06:39:08.907Z,16.00
2019-03-23T06:41:37.549Z,15.17
2019-03-23T06:44:05.648Z,15.80
2019-03-23T06:46:34.103Z,16.07
2019-03-23T06:49:02.034Z,16.63
2019-03-23T06:51:30.217Z,17.07
2019-03-23T06:53:58.269Z,16.23
2019-03-23T06:56:26.269Z,15.50
2019-03-23T06:58:54.252Z,17.00
2019-03-23T07:01:22.390Z,18.80
2019-03-23T07:03:50.503Z,16.80
2019-03-23T07:06:18.583Z,17.00
2019-03-23T07:08:46.591Z,18.17
2019-03-23T07:11:14.640Z,15.90
2019-03-23T07:13:42.693Z,17.13
2019-03-23T07:16:10.697Z,16.07
2019-03-23T07:18:38.847Z,15.27
2019-03-23T07:21:06.912Z,14.30
2019-03-23T07:23:34.901Z,13.83
2019-03-23T07:26:02.962Z,13.13
2019-03-23T07:28:31.100Z,15.50
2019-03-23T07:30:59.197Z,15.43
2019-03-23T07:33:27.263Z,15.37
2019-03-23T07:35:55.357Z,15.53
2019-03-23T07:38:23.447Z,13.40
2019-03-23T07:40:51.440Z,15.07
2019-03-23T07:43:19.468Z,15.17
2019-03-23T07:45:47.490Z,14.23
2019-03-23T07:48:15.472Z,14.03
2019-03-23T07:50:43.531Z,15.30
2019-03-23T07:53:11.465Z,14.47
2019-03-23T07:55:39.495Z,13.53
2019-03-23T07:58:08.533Z,14.13
2019-03-23T08:00:36.655Z,15.67
2019-03-23T08:03:04.564Z,15.20
2019-03-23T08:05:32.594Z,13.47
2019-03-23T08:08:00.653Z,14.43
2019-03-23T08:10:32.642Z,15.77
2019-03-23T08:13:00.983Z,15.10
2019-03-23T08:15:29.811Z,15.13
2019-03-23T08:17:57.932Z,15.37
2019-03-23T08:20:25.962Z,14.17
2019-03-23T08:22:53.980Z,13.00
2019-03-23T08:25:21.992Z,14.90
2019-03-23T08:27:49.997Z,12.90
2019-03-23T08:30:18.266Z,13.73
2019-03-23T08:32:46.287Z,13.87
2019-03-23T08:35:14.266Z,14.77
2019-03-23T08:37:42.430Z,13.67
2019-03-23T08:40:10.538Z,13.70
2019-03-23T08:42:38.651Z,14.80
2019-03-23T08:45:06.936Z,13.93
2019-03-23T08:47:34.923Z,14.10
2019-03-23T08:50:03.041Z,12.73
2019-03-23T08:52:31.011Z,15.57
2019-03-23T08:54:59.102Z,13.67
2019-03-23T08:57:27.283Z,9.50
2019-03-23T08:59:55.414Z,12.83
2019-03-23T09:02:23.321Z,12.87
2019-03-23T09:04:51.347Z,14.67
2019-03-23T09:07:19.358Z,12.23
2019-03-23T09:09:47.333Z,14.27
2019-03-23T09:12:15.387Z,13.10
2019-03-23T09:14:43.468Z,12.27
2019-03-23T09:17:11.510Z,14.07
2019-03-23T09:19:39.554Z,11.70
2019-03-23T09:22:07.610Z,10.60
2019-03-23T09:24:35.587Z,8.63
2019-03-23T09:27:03.659Z,8.70
2019-03-23T09:29:31.794Z,10.23
2019-03-23T09:31:59.811Z,7.27
2019-03-23T09:34:27.893Z,7.43
2019-03-23T09:36:55.864Z,8.60
2019-03-23T09:39:24.002Z,8.93
2019-03-23T09:41:52.097Z,8.53
2019-03-23T09:44:20.089Z,7.97
2019-03-23T09:46:48.101Z,6.93
2019-03-23T09:49:16.179Z,8.03
2019-03-23T09:51:44.260Z,8.43
2019-03-23T09:54:22.590Z,8.60
2019-03-23T09:56:50.661Z,8.57
2019-03-23T09:59:18.820Z,9.30
2019-03-23T10:01:46.928Z,8.57
2019-03-23T10:04:14.923Z,6.63
2019-03-23T10:06:42.968Z,7.73
2019-03-23T10:09:11.030Z,7.07
2019-03-23T10:11:39.280Z,8.23
2019-03-23T10:14:07.767Z,7.17
2019-03-23T10:16:35.907Z,7.67
2019-03-23T10:19:04.102Z,6.80
2019-03-23T10:21:32.184Z,6.30
2019-03-23T10:24:00.247Z,7.13
2019-03-23T10:26:28.533Z,7.77
2019-03-23T10:28:56.755Z,5.97
2019-03-23T10:31:24.826Z,6.93
2019-03-23T10:33:52.824Z,7.27
2019-03-23T10:36:21.422Z,5.77
2019-03-23T10:38:49.540Z,6.47
2019-03-23T10:41:17.554Z,6.83
2019-03-23T10:43:45.648Z,7.50
2019-03-23T10:46:13.748Z,6.93
2019-03-23T10:48:41.809Z,7.37
2019-03-23T10:51:09.826Z,7.07
2019-03-23T10:53:37.854Z,7.13
2019-03-23T10:56:06.178Z,7.53
2019-03-23T10:58:34.158Z,7.73
2019-03-23T11:01:02.217Z,8.53
2019-03-23T11:03:30.218Z,8.20
2019-03-23T11:05:58.225Z,7.10
2019-03-23T11:08:26.262Z,7.87
2019-03-23T11:10:54.312Z,9.80
2019-03-23T11:13:22.388Z,6.97
2019-03-23T11:15:50.416Z,7.70
2019-03-23T11:18:18.506Z,8.00
2019-03-23T11:20:46.610Z,8.03
2019-03-23T11:23:14.604Z,5.67
2019-03-23T11:25:42.889Z,7.20
2019-03-23T11:28:10.974Z,8.03
2019-03-23T11:30:38.968Z,8.03
2019-03-23T11:33:07.190Z,8.47
2019-03-23T11:35:35.258Z,8.43
2019-03-23T11:38:03.345Z,7.70
2019-03-23T11:40:31.397Z,7.57
2019-03-23T11:42:59.444Z,10.17
2019-03-23T11:45:27.528Z,7.70
2019-03-23T11:47:55.547Z,7.53
2019-03-23T11:50:23.583Z,7.23
2019-03-23T11:52:52.018Z,7.87
2019-03-23T11:55:19.948Z,7.70
2019-03-23T11:57:48.114Z,7.60
2019-03-23T12:00:17.610Z,8.07
2019-03-23T12:02:46.082Z,7.90
2019-03-23T12:05:14.474Z,7.13
2019-03-23T12:07:44.431Z,8.63
2019-03-23T12:10:13.057Z,6.60
2019-03-23T12:12:41.591Z,8.33
2019-03-23T12:15:10.507Z,7.47
2019-03-23T12:17:38.538Z,8.37
2019-03-23T12:20:10.156Z,6.93
2019-03-23T12:22:38.317Z,7.47
2019-03-23T12:25:06.559Z,6.33
2019-03-23T12:27:34.870Z,6.13
2019-03-23T12:30:07.542Z,8.40
2019-03-23T12:32:33.842Z,7.93
2019-03-23T12:35:02.214Z,12.53
2019-03-23T12:37:30.234Z,7.10
2019-03-23T12:39:58.295Z,7.63
2019-03-23T12:42:26.336Z,8.90
2019-03-23T12:44:54.462Z,7.13
2019-03-23T12:47:22.489Z,7.17
2019-03-23T12:49:50.578Z,6.97
2019-03-23T12:52:18.631Z,7.27
2019-03-23T12:54:47.186Z,7.73
2019-03-23T12:57:16.089Z,7.33
2019-03-23T12:59:44.517Z,6.97
2019-03-23T13:02:14.358Z,6.83
2019-03-23T13:04:43.619Z,7.10
2019-03-23T13:07:14.419Z,7.10
2019-03-23T13:09:43.445Z,9.87
2019-03-23T13:12:12.902Z,6.70
2019-03-23T13:14:43.032Z,6.83
2019-03-23T13:17:11.860Z,6.13
2019-03-23T13:19:41.085Z,7.13
2019-03-23T13:22:10.373Z,7.23
2019-03-23T13:24:38.466Z,7.10
2019-03-23T13:27:06.577Z,6.47
2019-03-23T13:29:34.576Z,6.87
2019-03-23T13:32:02.781Z,6.80
2019-03-23T13:34:30.780Z,6.53
2019-03-23T13:36:58.783Z,6.90
2019-03-23T13:39:26.769Z,4.83
2019-03-23T13:41:54.857Z,6.03
2019-03-23T13:44:22.850Z,4.73
2019-03-23T13:46:50.853Z,4.80
2019-03-23T13:49:18.807Z,5.57
2019-03-23T13:51:46.846Z,5.63
2019-03-23T13:54:14.871Z,5.73
2019-03-23T13:56:42.877Z,4.33
2019-03-23T13:59:10.906Z,3.10
2019-03-23T14:01:38.980Z,2.63
2019-03-23T14:04:06.998Z,2.90
2019-03-23T14:06:35.045Z,2.70
2019-03-23T14:09:04.674Z,2.80
2019-03-23T14:11:32.869Z,2.70
2019-03-23T14:14:00.916Z,3.37
2019-03-23T14:16:28.924Z,3.57
2019-03-23T14:18:56.957Z,2.80
2019-03-23T14:21:24.983Z,3.50
2019-03-23T14:23:55.164Z,3.07
2019-03-23T14:26:23.081Z,2.90
2019-03-23T14:28:51.140Z,3.07
2019-03-23T14:31:19.284Z,3.07
2019-03-23T14:33:47.314Z,2.70
2019-03-23T14:36:15.383Z,2.27
2019-03-23T14:38:43.446Z,2.80
2019-03-23T14:41:11.396Z,3.30
2019-03-23T14:43:39.410Z,2.80
2019-03-23T14:46:07.582Z,3.47
2019-03-23T14:48:35.632Z,3.43
2019-03-23T14:51:03.657Z,3.80
2019-03-23T14:53:32.437Z,4.10
2019-03-23T14:56:00.447Z,3.13
2019-03-23T14:58:28.530Z,3.13
2019-03-23T15:00:56.654Z,3.10
2019-03-23T15:03:24.692Z,3.50
2019-03-23T15:05:52.954Z,2.83
2019-03-23T15:08:21.079Z,3.37
2019-03-23T15:10:49.304Z,3.57
2019-03-23T15:13:17.810Z,3.60
2019-03-23T15:15:45.949Z,4.20
2019-03-23T15:18:14.050Z,3.90
2019-03-23T15:20:42.116Z,4.30
2019-03-23T15:23:10.058Z,4.07
2019-03-23T15:25:39.519Z,4.30
2019-03-23T15:28:07.791Z,4.27
2019-03-23T15:30:35.841Z,4.70
2019-03-23T15:33:03.923Z,4.30
2019-03-23T15:35:32.040Z,4.97
2019-03-23T15:38:00.040Z,5.70
2019-03-23T15:40:28.004Z,5.37
2019-03-23T15:42:55.998Z,5.47
2019-03-23T15:45:24.060Z,5.30
2019-03-23T15:47:52.062Z,5.10
2019-03-23T15:50:20.207Z,4.73
2019-03-23T15:52:48.298Z,4.97
2019-03-23T15:55:16.445Z,4.50
2019-03-23T15:57:44.509Z,4.57
2019-03-23T16:00:13.087Z,4.37
2019-03-23T16:02:41.097Z,4.10
2019-03-23T16:05:10.004Z,4.47
2019-03-23T16:07:38.019Z,4.13
2019-03-23T16:10:07.022Z,4.83
2019-03-23T16:12:37.598Z,3.87
2019-03-23T16:15:07.904Z,3.87
2019-03-23T16:17:35.958Z,4.07
2019-03-23T16:20:04.830Z,4.30
2019-03-23T16:22:32.787Z,4.70
2019-03-23T16:25:00.833Z,4.67
2019-03-23T16:27:29.032Z,4.10
2019-03-23T16:29:57.266Z,4.53
2019-03-23T16:32:25.341Z,3.40
2019-03-23T16:34:53.383Z,4.63
2019-03-23T16:37:21.366Z,4.53
2019-03-23T16:39:49.522Z,5.10
2019-03-23T16:42:17.533Z,4.93
2019-03-23T16:44:45.530Z,5.30
2019-03-23T16:47:13.578Z,5.20
2019-03-23T16:49:41.659Z,4.60
2019-03-23T16:52:09.728Z,5.70
2019-03-23T16:54:37.808Z,5.83
2019-03-23T16:57:05.947Z,5.83
2019-03-23T16:59:33.982Z,5.17
2019-03-23T17:02:01.892Z,4.80
2019-03-23T17:04:29.897Z,5.27
2019-03-23T17:06:58.060Z,5.90
2019-03-23T17:09:26.097Z,6.03
2019-03-23T17:11:54.058Z,6.13
2019-03-23T17:14:22.073Z,6.23
2019-03-23T17:16:50.115Z,6.13
2019-03-23T17:19:18.277Z,6.23
2019-03-23T17:21:46.426Z,6.57
2019-03-23T17:24:14.519Z,7.10
2019-03-23T17:26:42.518Z,6.83
2019-03-23T17:29:10.795Z,6.83
2019-03-23T17:31:39.134Z,8.13
2019-03-23T17:34:07.104Z,10.33
2019-03-23T17:36:35.272Z,8.90
2019-03-23T17:39:04.375Z,8.83
2019-03-23T17:41:32.390Z,7.87
2019-03-23T17:44:00.377Z,7.50
2019-03-23T17:46:28.518Z,9.20
2019-03-23T17:48:56.598Z,9.97
2019-03-23T17:51:24.785Z,10.77
2019-03-23T17:53:58.479Z,10.67
2019-03-23T17:56:22.735Z,9.87
2019-03-23T17:58:50.747Z,11.80
2019-03-23T18:01:19.850Z,15.53
2019-03-23T18:03:47.897Z,12.03
2019-03-23T18:06:16.165Z,12.13
2019-03-23T18:08:44.250Z,11.90
2019-03-23T18:11:12.441Z,11.57
2019-03-23T18:13:40.585Z,12.30
2019-03-23T18:16:08.688Z,12.80
2019-03-23T18:18:36.818Z,12.73
2019-03-23T18:21:05.118Z,12.50
2019-03-23T18:23:33.110Z,11.90
2019-03-23T18:26:01.244Z,11.93
2019-03-23T18:28:30.615Z,12.67
2019-03-23T18:30:58.835Z,13.03
2019-03-23T18:33:26.863Z,12.50
2019-03-23T18:35:54.878Z,13.37
2019-03-23T18:38:22.868Z,14.43
2019-03-23T18:40:50.961Z,12.77
2019-03-23T18:43:26.932Z,15.83
2019-03-23T18:45:49.165Z,14.73
2019-03-23T18:48:17.189Z,14.07
2019-03-23T18:50:45.318Z,13.30
2019-03-23T18:53:13.255Z,14.57
2019-03-23T18:55:41.284Z,13.50
2019-03-23T18:58:09.351Z,11.10
2019-03-23T19:00:39.419Z,14.13
2019-03-23T19:03:07.655Z,16.67
2019-03-23T19:05:35.817Z,15.63
2019-03-23T19:08:04.162Z,15.93
2019-03-23T19:10:32.169Z,14.77
2019-03-23T19:13:00.211Z,14.87
2019-03-23T19:15:28.298Z,16.07
2019-03-23T19:17:56.277Z,16.40
2019-03-23T19:20:24.326Z,15.90
2019-03-23T19:22:52.289Z,14.33
2019-03-23T19:25:20.646Z,11.73
2019-03-23T19:27:49.371Z,14.27
2019-03-23T19:30:17.975Z,15.37
2019-03-23T19:32:46.134Z,15.30
2019-03-23T19:35:14.172Z,15.77
2019-03-23T19:37:42.176Z,16.00
2019-03-23T19:40:10.326Z,16.00
2019-03-23T19:42:38.360Z,14.77
2019-03-23T19:45:06.719Z,14.97
2019-03-23T19:47:34.725Z,15.50
2019-03-23T19:50:03.269Z,15.27
2019-03-23T19:52:33.500Z,13.37
2019-03-23T19:55:01.325Z,14.13
2019-03-23T19:57:29.352Z,14.70
2019-03-23T19:59:57.470Z,16.73
2019-03-23T20:02:25.462Z,14.80
2019-03-23T20:04:53.506Z,16.43
2019-03-23T20:07:21.533Z,14.83
2019-03-23T20:09:49.624Z,14.00
2019-03-23T20:12:17.719Z,15.03
2019-03-23T20:14:45.790Z,15.10
2019-03-23T20:17:13.766Z,14.20
2019-03-23T20:19:42.105Z,14.53
2019-03-23T20:22:10.199Z,15.10
2019-03-23T20:24:38.478Z,14.07
2019-03-23T20:27:06.531Z,14.10
2019-03-23T20:29:34.563Z,14.30
2019-03-23T20:32:02.561Z,15.60
2019-03-23T20:34:30.706Z,14.53
2019-03-23T20:36:59.121Z,14.83
2019-03-23T20:39:27.088Z,14.47
2019-03-23T20:41:55.104Z,15.07
2019-03-23T20:44:23.143Z,13.53
2019-03-23T20:46:51.130Z,14.37
2019-03-23T20:49:19.721Z,13.90
2019-03-23T20:51:48.047Z,14.17
2019-03-23T20:54:16.049Z,14.10
2019-03-23T20:56:44.111Z,15.00
2019-03-23T20:59:12.131Z,15.20
2019-03-23T21:01:40.764Z,15.00
2019-03-23T21:04:08.822Z,14.87
2019-03-23T21:06:36.853Z,16.53
2019-03-23T21:09:06.969Z,14.87
2019-03-23T21:11:34.967Z,14.97
2019-03-23T21:14:02.891Z,13.60
2019-03-23T21:16:30.947Z,14.10
2019-03-23T21:18:58.985Z,14.07
2019-03-23T21:21:26.985Z,14.57
2019-03-23T21:23:54.964Z,14.87
2019-03-23T21:26:23.075Z,14.20
2019-03-23T21:28:51.055Z,14.10
2019-03-23T21:31:19.061Z,11.97
2019-03-23T21:33:47.142Z,12.53
2019-03-23T21:36:15.235Z,12.00
2019-03-23T21:38:43.408Z,12.73
2019-03-23T21:41:11.350Z,14.23
2019-03-23T21:43:39.359Z,12.30
2019-03-23T21:46:07.364Z,12.77
2019-03-23T21:48:35.367Z,12.10
2019-03-23T21:51:03.374Z,13.03
2019-03-23T21:53:31.343Z,11.67
2019-03-23T21:56:00.221Z,13.40
2019-03-23T21:58:28.114Z,11.50
2019-03-23T22:00:56.192Z,11.50
2019-03-23T22:03:24.229Z,11.20
2019-03-23T22:05:52.230Z,11.53
2019-03-23T22:08:20.167Z,11.87
2019-03-23T22:10:48.172Z,10.73
2019-03-23T22:13:16.222Z,16.37
2019-03-23T22:15:44.161Z,15.90
2019-03-23T22:18:12.190Z,15.23
2019-03-23T22:20:41.203Z,16.60
2019-03-23T22:23:09.184Z,16.87
2019-03-23T22:25:37.189Z,18.03
2019-03-23T22:28:05.190Z,16.70
2019-03-23T22:30:33.274Z,17.67
2019-03-23T22:33:01.678Z,17.93
2019-03-23T22:35:29.738Z,17.20
2019-03-23T22:37:57.634Z,16.80
2019-03-23T22:40:28.031Z,14.77
2019-03-23T22:42:55.585Z,18.27
2019-03-23T22:45:23.636Z,16.43
2019-03-23T22:47:51.753Z,13.77
2019-03-23T22:50:19.688Z,17.87
2019-03-23T22:52:47.757Z,21.33
2019-03-23T22:55:15.742Z,30.03
2019-03-23T22:57:43.733Z,28.20
2019-03-23T23:00:15.264Z,20.57
2019-03-23T23:02:43.434Z,20.07
2019-03-23T23:05:11.475Z,12.40
2019-03-23T23:07:39.540Z,13.07
2019-03-23T23:10:08.023Z,13.73
2019-03-23T23:12:36.019Z,10.07
2019-03-23T23:15:05.153Z,14.43
2019-03-23T23:17:33.359Z,15.27
2019-03-23T23:20:01.555Z,14.77
2019-03-23T23:22:29.629Z,14.47
2019-03-23T23:24:57.711Z,14.87
2019-03-23T23:27:25.666Z,14.27
2019-03-23T23:29:53.738Z,14.53
2019-03-23T23:32:21.743Z,14.33
2019-03-23T23:34:49.859Z,13.90
2019-03-23T23:37:17.898Z,14.93
2019-03-23T23:39:45.845Z,13.40
2019-03-23T23:42:14.648Z,14.10
2019-03-23T23:44:42.658Z,12.37
2019-03-23T23:47:10.731Z,12.20
2019-03-23T23:49:38.679Z,13.27
2019-03-23T23:52:07.132Z,13.00
2019-03-23T23:54:35.222Z,10.10
2019-03-23T23:57:03.359Z,11.20
2019-03-23T23:59:31.454Z,13.27
